createdAt,value
2024-02-20T00:00:03.468Z,27.45
2024-02-20T00:01:03.600Z,27.44
2024-02-20T00:02:03.656Z,27.43
2024-02-20T00:03:03.655Z,27.43
2024-02-20T00:04:03.744Z,27.43
2024-02-20T00:05:03.841Z,27.44
2024-02-20T00:06:03.908Z,27.45
2024-02-20T00:07:04.022Z,27.47
2024-02-20T00:08:04.436Z,27.45
2024-02-20T00:09:04.058Z,27.44
2024-02-20T00:10:04.145Z,27.45
2024-02-20T00:11:04.228Z,27.45
2024-02-20T00:12:04.255Z,27.43
2024-02-20T00:13:04.414Z,27.44
2024-02-20T00:14:04.409Z,27.42
2024-02-20T00:15:04.480Z,27.44
2024-02-20T00:16:04.588Z,27.43
2024-02-20T00:17:04.612Z,27.44
2024-02-20T00:18:04.882Z,27.41
2024-02-20T00:19:04.838Z,27.43
2024-02-20T00:20:04.863Z,27.42
2024-02-20T00:21:04.906Z,27.42
2024-02-20T00:22:04.974Z,27.44
2024-02-20T00:23:05.032Z,27.45
2024-02-20T00:24:05.098Z,27.41
2024-02-20T00:25:05.369Z,27.41
2024-02-20T00:26:05.251Z,27.43
2024-02-20T00:27:05.327Z,27.42
2024-02-20T00:28:05.414Z,27.41
2024-02-20T00:29:05.472Z,27.42
2024-02-20T00:30:05.531Z,27.42
2024-02-20T00:31:05.657Z,27.42
2024-02-20T00:32:05.720Z,27.42
2024-02-20T00:33:05.777Z,27.42
2024-02-20T00:34:05.885Z,27.41
2024-02-20T00:35:06.014Z,27.40
2024-02-20T00:36:05.970Z,27.39
2024-02-20T00:37:06.040Z,27.41
2024-02-20T00:38:06.066Z,27.40
2024-02-20T00:39:06.138Z,27.39
2024-02-20T00:40:06.233Z,27.39
2024-02-20T00:41:06.289Z,27.41
2024-02-20T00:42:06.352Z,27.40
2024-02-20T00:43:06.461Z,27.39
2024-02-20T00:44:06.502Z,27.40
2024-02-20T00:45:06.542Z,27.41
2024-02-20T00:46:06.684Z,27.38
2024-02-20T00:47:06.673Z,27.40
2024-02-20T00:48:06.854Z,27.39
2024-02-20T00:49:06.929Z,27.39
2024-02-20T00:50:06.937Z,27.39
2024-02-20T00:51:07.004Z,27.38
2024-02-20T00:52:07.043Z,27.39
2024-02-20T00:53:07.103Z,27.38
2024-02-20T00:54:07.156Z,27.39
2024-02-20T00:55:07.285Z,27.38
2024-02-20T00:56:07.348Z,27.38
2024-02-20T00:57:07.379Z,27.37
2024-02-20T00:58:07.478Z,27.37
2024-02-20T00:59:07.521Z,27.37
2024-02-20T01:00:07.580Z,27.37
2024-02-20T01:01:07.753Z,27.38
2024-02-20T01:02:07.824Z,27.36
2024-02-20T01:03:07.830Z,27.35
2024-02-20T01:04:08.035Z,27.37
2024-02-20T01:05:07.917Z,27.35
2024-02-20T01:06:08.137Z,27.35
2024-02-20T01:07:08.114Z,27.34
2024-02-20T01:08:08.132Z,27.34
2024-02-20T01:09:08.182Z,27.34
2024-02-20T01:10:08.271Z,27.35
2024-02-20T01:11:08.320Z,27.35
2024-02-20T01:12:08.457Z,27.34
2024-02-20T01:13:08.510Z,27.30
2024-02-20T01:14:08.553Z,27.34
2024-02-20T01:15:08.595Z,27.33
2024-02-20T01:16:08.694Z,27.34
2024-02-20T01:17:08.776Z,27.34
2024-02-20T01:18:08.876Z,27.36
2024-02-20T01:19:09.158Z,27.31
2024-02-20T01:20:08.972Z,27.33
2024-02-20T01:21:09.057Z,27.33
2024-02-20T01:22:09.171Z,27.32
2024-02-20T01:23:09.959Z,27.33
2024-02-20T01:24:09.277Z,27.33
2024-02-20T01:25:09.378Z,27.32
2024-02-20T01:26:09.443Z,27.34
2024-02-20T01:27:09.454Z,27.32
2024-02-20T01:28:09.536Z,27.31
2024-02-20T01:29:09.562Z,27.31
2024-02-20T01:30:09.638Z,27.32
2024-02-20T01:31:09.758Z,27.33
2024-02-20T01:32:09.795Z,27.31
2024-02-20T01:33:09.950Z,27.32
2024-02-20T01:34:09.971Z,27.31
2024-02-20T01:35:10.101Z,27.29
2024-02-20T01:36:10.063Z,27.30
2024-02-20T01:37:10.132Z,27.29
2024-02-20T01:38:10.199Z,27.29
2024-02-20T01:39:10.244Z,27.28
2024-02-20T01:40:10.339Z,27.30
2024-02-20T01:41:10.400Z,27.29
2024-02-20T01:42:10.456Z,27.29
2024-02-20T01:43:10.609Z,27.28
2024-02-20T01:44:10.692Z,27.30
2024-02-20T01:45:10.684Z,27.30
2024-02-20T01:46:10.902Z,27.29
2024-02-20T01:47:10.803Z,27.30
2024-02-20T01:48:10.915Z,27.28
2024-02-20T01:49:11.083Z,27.29
2024-02-20T01:50:11.163Z,27.30
2024-02-20T01:51:11.039Z,27.29
2024-02-20T01:52:11.157Z,27.30
2024-02-20T01:53:11.165Z,27.29
2024-02-20T01:54:11.260Z,27.29
2024-02-20T01:55:11.377Z,27.28
2024-02-20T01:56:11.407Z,27.28
2024-02-20T01:57:11.428Z,27.28
2024-02-20T01:58:11.530Z,27.30
2024-02-20T01:59:11.538Z,27.29
2024-02-20T02:00:11.592Z,27.29
2024-02-20T02:01:11.741Z,27.29
2024-02-20T02:02:11.711Z,27.27
2024-02-20T02:03:11.798Z,27.29
2024-02-20T02:04:12.053Z,27.27
2024-02-20T02:05:12.029Z,27.28
2024-02-20T02:06:12.128Z,27.29
2024-02-20T02:07:12.223Z,27.27
2024-02-20T02:08:12.117Z,27.28
2024-02-20T02:09:12.167Z,27.28
2024-02-20T02:10:12.284Z,27.30
2024-02-20T02:11:12.440Z,27.28
2024-02-20T02:12:12.309Z,27.29
2024-02-20T02:13:12.413Z,27.29
2024-02-20T02:14:12.389Z,27.31
2024-02-20T02:15:12.494Z,27.30
2024-02-20T02:16:12.534Z,27.28
2024-02-20T02:17:12.547Z,27.30
2024-02-20T02:18:12.705Z,27.29
2024-02-20T02:19:12.681Z,27.29
2024-02-20T02:20:12.744Z,27.27
2024-02-20T02:21:12.750Z,27.28
2024-02-20T02:22:12.812Z,27.29
2024-02-20T02:23:12.854Z,27.26
2024-02-20T02:24:12.890Z,27.28
2024-02-20T02:25:13.015Z,27.29
2024-02-20T02:26:13.049Z,27.28
2024-02-20T02:27:13.077Z,27.27
2024-02-20T02:28:13.160Z,27.26
2024-02-20T02:29:13.193Z,27.27
2024-02-20T02:30:13.248Z,27.25
2024-02-20T02:31:13.329Z,27.27
2024-02-20T02:32:13.364Z,27.28
2024-02-20T02:33:13.457Z,27.27
2024-02-20T02:34:13.499Z,27.26
2024-02-20T02:35:13.616Z,27.26
2024-02-20T02:36:13.556Z,27.26
2024-02-20T02:37:13.613Z,27.27
2024-02-20T02:38:13.639Z,27.28
2024-02-20T02:39:13.700Z,27.27
2024-02-20T02:40:13.834Z,27.26
2024-02-20T02:41:13.829Z,27.27
2024-02-20T02:42:13.866Z,27.27
2024-02-20T02:43:13.947Z,27.26
2024-02-20T02:44:14.018Z,27.25
2024-02-20T02:45:14.051Z,27.28
2024-02-20T02:46:14.168Z,27.28
2024-02-20T02:47:14.165Z,27.28
2024-02-20T02:48:14.295Z,27.29
2024-02-20T02:49:14.346Z,27.27
2024-02-20T02:50:14.433Z,27.27
2024-02-20T02:51:14.409Z,27.28
2024-02-20T02:52:14.435Z,27.29
2024-02-20T02:53:14.504Z,27.27
2024-02-20T02:54:14.562Z,27.28
2024-02-20T02:55:14.693Z,27.27
2024-02-20T02:56:14.708Z,27.28
2024-02-20T02:57:14.772Z,27.28
2024-02-20T02:58:14.918Z,27.27
2024-02-20T02:59:14.912Z,27.26
2024-02-20T03:00:14.969Z,27.26
2024-02-20T03:01:15.132Z,27.26
2024-02-20T03:02:15.168Z,27.26
2024-02-20T03:03:15.235Z,27.26
2024-02-20T03:04:15.265Z,27.28
2024-02-20T03:05:15.333Z,27.28
2024-02-20T03:06:15.495Z,27.29
2024-02-20T03:07:15.543Z,27.28
2024-02-20T03:08:15.528Z,27.28
2024-02-20T03:09:15.582Z,27.28
2024-02-20T03:10:15.738Z,27.29
2024-02-20T03:11:15.738Z,27.28
2024-02-20T03:12:15.830Z,27.30
2024-02-20T03:13:15.945Z,27.26
2024-02-20T03:14:15.887Z,27.26
2024-02-20T03:15:15.971Z,27.27
2024-02-20T03:16:16.011Z,27.27
2024-02-20T03:17:15.975Z,27.28
2024-02-20T03:18:16.153Z,27.27
2024-02-20T03:19:16.241Z,27.28
2024-02-20T03:20:16.572Z,27.28
2024-02-20T03:21:16.243Z,27.26
2024-02-20T03:22:16.329Z,27.27
2024-02-20T03:23:16.365Z,27.27
2024-02-20T03:24:16.420Z,27.26
2024-02-20T03:25:16.927Z,27.26
2024-02-20T03:26:16.563Z,27.27
2024-02-20T03:27:16.603Z,27.28
2024-02-20T03:28:16.787Z,27.26
2024-02-20T03:29:16.756Z,27.27
2024-02-20T03:30:16.805Z,27.27
2024-02-20T03:31:16.929Z,27.27
2024-02-20T03:32:16.951Z,27.25
2024-02-20T03:33:17.077Z,27.27
2024-02-20T03:34:17.223Z,27.25
2024-02-20T03:35:17.272Z,27.26
2024-02-20T03:36:17.192Z,27.25
2024-02-20T03:37:17.265Z,27.26
2024-02-20T03:38:17.262Z,27.28
2024-02-20T03:39:17.382Z,27.27
2024-02-20T03:40:17.421Z,27.27
2024-02-20T03:41:17.439Z,27.27
2024-02-20T03:42:17.480Z,27.27
2024-02-20T03:43:17.544Z,27.27
2024-02-20T03:44:17.590Z,27.27
2024-02-20T03:45:17.638Z,27.28
2024-02-20T03:46:17.724Z,27.27
2024-02-20T03:47:17.725Z,27.25
2024-02-20T03:48:17.974Z,27.28
2024-02-20T03:49:18.059Z,27.27
2024-02-20T03:50:17.988Z,27.27
2024-02-20T03:51:17.962Z,27.27
2024-02-20T03:52:18.121Z,27.27
2024-02-20T03:53:18.101Z,27.26
2024-02-20T03:54:18.129Z,27.25
2024-02-20T03:55:18.207Z,27.25
2024-02-20T03:56:18.239Z,27.25
2024-02-20T03:57:18.300Z,27.25
2024-02-20T03:58:18.386Z,27.25
2024-02-20T03:59:18.410Z,27.25
2024-02-20T04:00:18.477Z,27.27
2024-02-20T04:01:18.749Z,27.27
2024-02-20T04:02:18.596Z,27.26
2024-02-20T04:03:18.628Z,27.24
2024-02-20T04:04:18.750Z,27.26
2024-02-20T04:05:21.170Z,27.26
2024-02-20T04:06:18.802Z,27.24
2024-02-20T04:07:18.787Z,27.25
2024-02-20T04:08:18.755Z,27.23
2024-02-20T04:09:18.765Z,27.25
2024-02-20T04:10:19.071Z,27.24
2024-02-20T04:11:18.842Z,27.25
2024-02-20T04:12:18.775Z,27.23
2024-02-20T04:13:18.776Z,27.24
2024-02-20T04:14:18.769Z,27.25
2024-02-20T04:15:18.820Z,27.22
2024-02-20T04:16:18.848Z,27.25
2024-02-20T04:17:18.763Z,27.23
2024-02-20T04:18:18.880Z,27.24
2024-02-20T04:19:18.842Z,27.25
2024-02-20T04:20:18.828Z,27.24
2024-02-20T04:21:18.763Z,27.24
2024-02-20T04:22:18.832Z,27.24
2024-02-20T04:23:18.800Z,27.22
2024-02-20T04:24:18.771Z,27.23
2024-02-20T04:25:18.834Z,27.23
2024-02-20T04:26:18.842Z,27.22
2024-02-20T04:27:18.769Z,27.24
2024-02-20T04:28:18.809Z,27.22
2024-02-20T04:29:18.864Z,27.22
2024-02-20T04:30:18.817Z,27.23
2024-02-20T04:31:18.849Z,27.22
2024-02-20T04:32:18.792Z,27.21
2024-02-20T04:33:19.655Z,27.20
2024-02-20T04:34:27.828Z,27.24
2024-02-20T04:35:27.776Z,27.23
2024-02-20T04:36:27.715Z,27.23
2024-02-20T04:37:27.832Z,27.22
2024-02-20T04:38:27.761Z,27.22
2024-02-20T04:39:27.723Z,27.19
2024-02-20T04:40:27.826Z,27.20
2024-02-20T04:41:27.734Z,27.23
2024-02-20T04:42:27.738Z,27.21
2024-02-20T04:43:27.890Z,27.23
2024-02-20T04:44:27.777Z,27.22
2024-02-20T04:45:27.757Z,27.22
2024-02-20T04:46:27.866Z,27.21
2024-02-20T04:47:27.910Z,27.21
2024-02-20T04:48:28.007Z,27.20
2024-02-20T04:49:50.068Z,27.21
2024-02-20T04:50:28.074Z,27.26
2024-02-20T04:51:28.075Z,27.23
2024-02-20T04:52:28.067Z,27.24
2024-02-20T04:53:28.020Z,27.23
2024-02-20T04:54:28.048Z,27.23
2024-02-20T04:55:28.090Z,27.22
2024-02-20T04:56:28.046Z,27.24
2024-02-20T04:57:28.060Z,27.22
2024-02-20T04:58:28.101Z,27.20
2024-02-20T04:59:28.101Z,27.20
2024-02-20T05:00:28.048Z,27.19
2024-02-20T05:01:28.287Z,27.20
2024-02-20T05:02:28.066Z,27.19
2024-02-20T05:03:28.076Z,27.16
2024-02-20T05:04:28.193Z,27.17
2024-02-20T05:05:28.065Z,27.15
2024-02-20T05:06:28.087Z,27.16
2024-02-20T05:07:28.165Z,27.15
2024-02-20T05:08:28.046Z,27.13
2024-02-20T05:09:28.090Z,27.14
2024-02-20T05:10:28.095Z,27.12
2024-02-20T05:11:28.103Z,27.13
2024-02-20T05:12:28.113Z,27.12
2024-02-20T05:13:28.232Z,27.13
2024-02-20T05:14:28.222Z,27.12
2024-02-20T05:15:28.290Z,27.10
2024-02-20T05:16:28.404Z,27.10
2024-02-20T05:17:28.430Z,27.11
2024-02-20T05:18:28.510Z,27.07
2024-02-20T05:19:28.588Z,27.09
2024-02-20T05:20:28.643Z,27.08
2024-02-20T05:21:28.764Z,27.09
2024-02-20T05:22:28.862Z,27.08
2024-02-20T05:23:28.851Z,27.08
2024-02-20T05:24:28.912Z,27.07
2024-02-20T05:25:28.973Z,27.08
2024-02-20T05:26:29.042Z,27.08
2024-02-20T05:27:29.114Z,27.06
2024-02-20T05:28:29.257Z,27.07
2024-02-20T05:29:29.243Z,27.08
2024-02-20T05:30:29.326Z,27.07
2024-02-20T05:31:29.533Z,27.07
2024-02-20T05:32:29.515Z,27.07
2024-02-20T05:33:29.772Z,27.07
2024-02-20T05:34:29.701Z,27.06
2024-02-20T05:35:29.694Z,27.06
2024-02-20T05:36:29.743Z,27.07
2024-02-20T05:37:29.880Z,27.06
2024-02-20T05:38:29.891Z,27.05
2024-02-20T05:39:29.968Z,27.03
2024-02-20T05:40:30.066Z,27.05
2024-02-20T05:41:30.116Z,27.05
2024-02-20T05:42:30.174Z,27.06
2024-02-20T05:43:30.301Z,27.04
2024-02-20T05:44:30.298Z,27.02
2024-02-20T05:45:30.369Z,27.02
2024-02-20T05:46:30.499Z,27.03
2024-02-20T05:47:30.559Z,27.03
2024-02-20T05:48:30.661Z,27.03
2024-02-20T05:49:30.861Z,27.03
2024-02-20T05:50:30.874Z,27.03
2024-02-20T05:51:30.742Z,26.99
2024-02-20T05:52:30.855Z,27.02
2024-02-20T05:53:30.851Z,27.01
2024-02-20T05:54:30.928Z,27.01
2024-02-20T05:55:31.083Z,27.01
2024-02-20T05:56:31.067Z,26.97
2024-02-20T05:57:31.127Z,27.00
2024-02-20T05:58:31.227Z,27.01
2024-02-20T05:59:31.287Z,26.99
2024-02-20T06:00:31.357Z,27.01
2024-02-20T06:01:31.497Z,27.01
2024-02-20T06:02:33.705Z,26.99
2024-02-20T06:03:31.632Z,26.99
2024-02-20T06:04:31.793Z,26.98
2024-02-20T06:05:31.983Z,26.98
2024-02-20T06:06:31.880Z,26.81
2024-02-20T06:07:32.003Z,26.84
2024-02-20T06:08:31.913Z,27.04
2024-02-20T06:09:31.920Z,27.34
2024-02-20T06:10:32.055Z,27.62
2024-02-20T06:11:32.142Z,27.81
2024-02-20T06:12:32.052Z,27.93
2024-02-20T06:13:32.072Z,27.98
2024-02-20T06:14:32.068Z,28.06
2024-02-20T06:15:32.118Z,28.06
2024-02-20T06:16:32.136Z,28.06
2024-02-20T06:17:32.195Z,28.00
2024-02-20T06:18:32.313Z,27.93
2024-02-20T06:19:32.383Z,27.88
2024-02-20T06:20:32.484Z,27.81
2024-02-20T06:21:32.511Z,27.76
2024-02-20T06:22:32.531Z,27.73
2024-02-20T06:23:32.538Z,27.68
2024-02-20T06:24:32.556Z,27.64
2024-02-20T06:25:32.674Z,27.58
2024-02-20T06:26:32.646Z,27.55
2024-02-20T06:27:32.745Z,27.54
2024-02-20T06:28:32.746Z,27.53
2024-02-20T06:29:32.691Z,27.49
2024-02-20T06:30:32.744Z,27.45
2024-02-20T06:31:32.804Z,27.43
2024-02-20T06:32:57.531Z,27.41
2024-02-20T06:33:32.868Z,27.46
2024-02-20T06:34:33.045Z,27.41
2024-02-20T06:35:32.784Z,27.38
2024-02-20T06:36:32.762Z,27.42
2024-02-20T06:37:32.789Z,27.49
2024-02-20T06:38:32.752Z,27.70
2024-02-20T06:39:32.738Z,27.45
2024-02-20T06:40:32.754Z,27.47
2024-02-20T06:41:32.880Z,27.50
2024-02-20T06:42:33.091Z,27.68
2024-02-20T06:43:32.808Z,27.79
2024-02-20T06:44:32.756Z,28.04
2024-02-20T06:45:59.893Z,28.19
2024-02-20T06:46:32.799Z,28.16
2024-02-20T06:47:32.777Z,28.31
2024-02-20T06:48:32.838Z,28.32
2024-02-20T06:49:32.764Z,28.81
2024-02-20T06:50:32.773Z,28.96
2024-02-20T06:51:32.766Z,28.89
2024-02-20T06:52:32.790Z,29.00
2024-02-20T06:53:32.805Z,29.13
2024-02-20T06:54:32.787Z,29.84
2024-02-20T06:55:32.834Z,30.00
2024-02-20T06:56:32.789Z,29.88
2024-02-20T06:57:32.765Z,29.87
2024-02-20T06:58:32.825Z,29.78
2024-02-20T06:59:32.780Z,29.78
2024-02-20T07:00:32.877Z,29.87
2024-02-20T07:01:33.264Z,29.92
2024-02-20T07:02:32.796Z,29.97
2024-02-20T07:03:32.771Z,30.10
2024-02-20T07:04:32.844Z,30.05
2024-02-20T07:05:33.042Z,30.01
2024-02-20T07:06:32.813Z,30.12
2024-02-20T07:07:32.815Z,30.47
2024-02-20T07:08:32.770Z,30.50
2024-02-20T07:09:32.765Z,30.24
2024-02-20T07:10:32.892Z,30.58
2024-02-20T07:11:33.011Z,30.62
2024-02-20T07:12:32.781Z,30.79
2024-02-20T07:13:32.843Z,30.64
2024-02-20T07:14:32.806Z,30.64
2024-02-20T07:15:32.801Z,31.34
2024-02-20T07:16:32.878Z,31.31
2024-02-20T07:17:32.822Z,31.75
2024-02-20T07:18:32.851Z,31.46
2024-02-20T07:19:32.891Z,31.68
2024-02-20T07:20:32.822Z,31.63
2024-02-20T07:21:32.837Z,31.58
2024-02-20T07:22:32.889Z,31.85
2024-02-20T07:23:32.801Z,31.97
2024-02-20T07:24:32.816Z,31.99
2024-02-20T07:25:32.881Z,31.91
2024-02-20T07:26:32.809Z,32.03
2024-02-20T07:27:32.816Z,32.10
2024-02-20T07:28:32.841Z,32.15
2024-02-20T07:29:32.842Z,32.19
2024-02-20T07:30:32.817Z,32.34
2024-02-20T07:31:34.737Z,32.34
2024-02-20T07:32:32.874Z,32.39
2024-02-20T07:33:37.164Z,32.37
2024-02-20T07:34:33.992Z,32.23
2024-02-20T07:35:32.914Z,32.42
2024-02-20T07:36:32.835Z,32.41
2024-02-20T07:37:34.377Z,32.57
2024-02-20T07:38:54.877Z,32.61
2024-02-20T07:39:32.869Z,32.76
2024-02-20T07:40:33.038Z,32.65
2024-02-20T07:41:33.029Z,32.64
2024-02-20T07:42:32.877Z,32.46
2024-02-20T07:43:35.853Z,32.79
2024-02-20T07:44:33.868Z,32.61
2024-02-20T07:45:32.872Z,32.63
2024-02-20T07:46:32.904Z,32.73
2024-02-20T07:47:32.981Z,32.78
2024-02-20T07:48:33.096Z,32.84
2024-02-20T07:49:33.022Z,32.82
2024-02-20T07:50:32.942Z,32.83
2024-02-20T07:51:33.083Z,32.95
2024-02-20T07:52:33.006Z,33.02
2024-02-20T07:53:32.939Z,32.97
2024-02-20T07:54:33.024Z,33.06
2024-02-20T07:55:33.185Z,32.99
2024-02-20T07:57:59.569Z,34.27
2024-02-20T07:58:43.971Z,33.39
2024-02-20T07:59:38.462Z,33.29
2024-02-20T08:00:37.554Z,33.32
2024-02-20T08:01:37.612Z,33.54
2024-02-20T08:02:37.483Z,33.60
2024-02-20T08:03:37.516Z,33.50
2024-02-20T08:04:37.661Z,33.33
2024-02-20T08:05:37.750Z,33.42
2024-02-20T08:06:37.627Z,33.37
2024-02-20T08:07:38.858Z,33.54
2024-02-20T08:08:37.698Z,33.62
2024-02-20T08:09:37.767Z,33.53
2024-02-20T08:10:37.885Z,33.58
2024-02-20T08:11:37.924Z,33.56
2024-02-20T08:12:37.953Z,33.67
2024-02-20T08:13:38.065Z,33.62
2024-02-20T08:14:38.190Z,33.69
2024-02-20T08:15:38.136Z,33.65
2024-02-20T08:16:38.320Z,33.70
2024-02-20T08:17:38.318Z,33.84
2024-02-20T08:18:38.338Z,33.95
2024-02-20T08:19:38.426Z,33.76
2024-02-20T08:20:38.450Z,34.05
2024-02-20T08:21:38.462Z,33.94
2024-02-20T08:22:38.545Z,34.15
2024-02-20T08:23:38.558Z,34.03
2024-02-20T08:24:38.628Z,33.95
2024-02-20T08:25:38.663Z,33.84
2024-02-20T08:26:38.694Z,33.84
2024-02-20T08:27:38.762Z,34.01
2024-02-20T08:28:42.123Z,33.97
2024-02-20T08:29:38.747Z,34.27
2024-02-20T08:30:38.746Z,34.39
2024-02-20T08:31:38.822Z,32.10
2024-02-20T08:32:38.838Z,30.31
2024-02-20T08:33:38.849Z,29.52
2024-02-20T08:34:38.848Z,29.18
2024-02-20T08:35:38.781Z,29.14
2024-02-20T08:36:38.768Z,28.97
2024-02-20T08:37:38.863Z,29.03
2024-02-20T08:38:38.756Z,29.22
2024-02-20T08:39:38.748Z,29.29
2024-02-20T08:40:38.903Z,29.38
2024-02-20T08:41:38.833Z,29.50
2024-02-20T08:42:38.791Z,29.51
2024-02-20T08:43:38.845Z,29.68
2024-02-20T08:44:38.753Z,29.75
2024-02-20T08:45:38.761Z,30.02
2024-02-20T08:46:38.834Z,30.31
2024-02-20T08:47:38.811Z,30.32
2024-02-20T08:48:38.802Z,30.40
2024-02-20T08:49:38.888Z,30.47
2024-02-20T08:50:38.758Z,30.61
2024-02-20T08:51:39.566Z,30.63
2024-02-20T08:52:38.918Z,30.77
2024-02-20T08:53:38.764Z,30.98
2024-02-20T08:54:38.775Z,30.99
2024-02-20T08:55:38.875Z,31.10
2024-02-20T08:56:38.790Z,31.53
2024-02-20T08:57:38.763Z,31.55
2024-02-20T08:58:38.856Z,31.49
2024-02-20T08:59:38.787Z,31.35
2024-02-20T09:00:38.830Z,31.31
2024-02-20T09:01:38.868Z,31.32
2024-02-20T09:02:38.812Z,31.55
2024-02-20T09:03:38.763Z,31.57
2024-02-20T09:04:38.932Z,31.64
2024-02-20T09:05:38.970Z,31.79
2024-02-20T09:06:38.844Z,31.78
2024-02-20T09:07:38.898Z,31.97
2024-02-20T09:08:38.786Z,32.02
2024-02-20T09:09:38.818Z,32.05
2024-02-20T09:10:38.849Z,31.92
2024-02-20T09:11:39.057Z,32.10
2024-02-20T09:12:38.914Z,31.94
2024-02-20T09:13:38.982Z,32.05
2024-02-20T09:14:39.015Z,32.17
2024-02-20T09:15:39.084Z,32.14
2024-02-20T09:16:39.290Z,32.20
2024-02-20T09:17:39.212Z,32.26
2024-02-20T09:18:40.285Z,32.20
2024-02-20T09:19:39.354Z,32.19
2024-02-20T09:20:39.362Z,32.25
2024-02-20T09:21:39.397Z,32.16
2024-02-20T09:22:39.512Z,32.25
2024-02-20T09:23:39.904Z,32.22
2024-02-20T09:24:39.478Z,32.17
2024-02-20T09:25:39.626Z,32.05
2024-02-20T09:26:39.562Z,31.99
2024-02-20T09:27:39.585Z,32.02
2024-02-20T09:28:39.649Z,32.00
2024-02-20T09:29:39.637Z,31.85
2024-02-20T09:30:39.668Z,31.82
2024-02-20T09:31:39.749Z,31.94
2024-02-20T09:32:39.712Z,31.96
2024-02-20T09:33:39.841Z,32.14
2024-02-20T09:34:39.779Z,32.24
2024-02-20T09:35:39.723Z,32.24
2024-02-20T09:36:39.752Z,32.17
2024-02-20T09:37:39.784Z,32.24
2024-02-20T09:38:39.750Z,31.72
2024-02-20T09:39:39.787Z,30.03
2024-02-20T09:40:39.817Z,29.24
2024-02-20T09:41:39.849Z,29.03
2024-02-20T09:42:43.296Z,29.56
2024-02-20T09:43:41.049Z,29.82
2024-02-20T09:44:39.888Z,30.09
2024-02-20T09:45:39.872Z,30.47
2024-02-20T09:46:39.983Z,30.76
2024-02-20T09:47:39.885Z,31.08
2024-02-20T09:48:40.029Z,31.23
2024-02-20T09:49:40.001Z,31.19
2024-02-20T09:50:39.884Z,31.24
2024-02-20T09:51:39.926Z,31.35
2024-02-20T09:52:39.955Z,31.40
2024-02-20T09:53:39.905Z,31.22
2024-02-20T09:54:39.891Z,31.27
2024-02-20T09:55:39.920Z,31.53
2024-02-20T09:56:39.924Z,31.44
2024-02-20T09:57:39.891Z,31.49
2024-02-20T09:58:39.946Z,31.48
2024-02-20T09:59:39.882Z,31.57
2024-02-20T10:00:39.901Z,31.57
2024-02-20T10:01:40.101Z,31.61
2024-02-20T10:02:39.910Z,31.60
2024-02-20T10:04:09.678Z,31.51
2024-02-20T10:04:40.074Z,31.79
2024-02-20T10:05:40.095Z,31.92
2024-02-20T10:06:40.064Z,31.85
2024-02-20T10:07:40.000Z,32.02
2024-02-20T10:08:39.994Z,32.11
2024-02-20T10:09:39.970Z,32.69
2024-02-20T10:10:41.376Z,32.36
2024-02-20T10:11:40.035Z,32.43
2024-02-20T10:12:40.056Z,32.52
2024-02-20T10:13:40.070Z,32.38
2024-02-20T10:14:39.994Z,32.44
2024-02-20T10:15:40.002Z,32.62
2024-02-20T10:16:42.716Z,32.60
2024-02-20T10:17:40.660Z,32.53
2024-02-20T10:18:39.983Z,32.69
2024-02-20T10:19:40.031Z,32.67
2024-02-20T10:20:40.262Z,32.79
2024-02-20T10:21:40.068Z,32.75
2024-02-20T10:22:41.711Z,32.94
2024-02-20T10:24:14.705Z,32.79
2024-02-20T10:24:41.068Z,33.11
2024-02-20T10:25:40.234Z,33.10
2024-02-20T10:26:40.101Z,33.05
2024-02-20T10:27:40.063Z,33.23
2024-02-20T10:28:40.101Z,33.00
2024-02-20T10:29:40.068Z,32.95
2024-02-20T10:30:40.060Z,33.20
2024-02-20T10:31:40.142Z,33.09
2024-02-20T10:32:40.238Z,33.00
2024-02-20T10:33:40.180Z,33.03
2024-02-20T10:34:40.121Z,33.06
2024-02-20T10:35:40.113Z,33.18
2024-02-20T10:36:40.092Z,33.16
2024-02-20T10:37:40.443Z,33.22
2024-02-20T10:38:44.064Z,33.15
2024-02-20T10:39:40.075Z,33.07
2024-02-20T10:40:40.167Z,33.07
2024-02-20T10:41:40.075Z,33.02
2024-02-20T10:42:40.065Z,33.03
2024-02-20T10:43:40.090Z,33.00
2024-02-20T10:44:40.067Z,32.94
2024-02-20T10:45:40.087Z,32.92
2024-02-20T10:46:40.157Z,32.88
2024-02-20T10:47:40.148Z,32.82
2024-02-20T10:48:40.123Z,32.78
2024-02-20T10:49:40.249Z,32.77
2024-02-20T10:50:40.084Z,32.71
2024-02-20T10:51:40.080Z,32.64
2024-02-20T10:52:40.209Z,32.63
2024-02-20T10:53:40.157Z,32.58
2024-02-20T10:54:46.647Z,32.55
2024-02-20T10:55:41.326Z,32.56
2024-02-20T10:56:40.225Z,32.50
2024-02-20T10:57:40.261Z,32.50
2024-02-20T10:58:40.277Z,32.48
2024-02-20T10:59:40.257Z,32.42
2024-02-20T11:00:41.558Z,32.35
2024-02-20T11:01:40.294Z,32.29
2024-02-20T11:02:40.216Z,32.27
2024-02-20T11:03:49.189Z,32.23
2024-02-20T11:04:41.275Z,32.24
2024-02-20T11:05:40.358Z,32.23
2024-02-20T11:06:41.673Z,32.17
2024-02-20T11:07:40.272Z,32.14
2024-02-20T11:08:40.299Z,32.12
2024-02-20T11:09:40.219Z,32.10
2024-02-20T11:10:40.605Z,32.06
2024-02-20T11:11:40.312Z,32.01
2024-02-20T11:12:40.402Z,31.95
2024-02-20T11:13:40.296Z,31.94
2024-02-20T11:14:40.246Z,31.93
2024-02-20T11:15:40.310Z,31.83
2024-02-20T11:16:47.996Z,31.82
2024-02-20T11:17:41.445Z,31.82
2024-02-20T11:18:40.447Z,31.80
2024-02-20T11:19:40.565Z,31.79
2024-02-20T11:20:40.395Z,31.80
2024-02-20T11:21:40.459Z,31.71
2024-02-20T11:22:40.384Z,31.72
2024-02-20T11:23:40.369Z,31.71
2024-02-20T11:24:40.388Z,31.66
2024-02-20T11:25:40.538Z,31.63
2024-02-20T11:26:40.530Z,31.59
2024-02-20T11:27:40.547Z,31.54
2024-02-20T11:28:40.842Z,31.49
2024-02-20T11:29:40.667Z,31.49
2024-02-20T11:30:40.738Z,31.47
2024-02-20T11:31:40.842Z,31.46
2024-02-20T11:32:40.920Z,31.49
2024-02-20T11:33:41.073Z,31.46
2024-02-20T11:34:41.204Z,31.49
2024-02-20T11:35:43.309Z,31.48
2024-02-20T11:36:41.267Z,31.37
2024-02-20T11:37:49.120Z,31.39
2024-02-20T11:38:42.327Z,31.37
2024-02-20T11:40:03.483Z,31.33
2024-02-20T11:40:41.509Z,31.35
2024-02-20T11:41:44.109Z,31.28
2024-02-20T11:42:41.333Z,31.29
2024-02-20T11:43:41.360Z,31.22
2024-02-20T11:44:41.345Z,31.22
2024-02-20T11:45:41.378Z,31.15
2024-02-20T11:46:41.415Z,31.09
2024-02-20T11:47:41.415Z,31.12
2024-02-20T11:48:41.420Z,31.08
2024-02-20T11:49:41.465Z,31.05
2024-02-20T11:50:41.354Z,31.00
2024-02-20T11:51:41.390Z,31.04
2024-02-20T11:52:41.454Z,30.97
2024-02-20T11:53:41.389Z,30.97
2024-02-20T11:54:41.339Z,30.92
2024-02-20T11:55:41.440Z,30.93
2024-02-20T11:56:41.394Z,30.91
2024-02-20T11:57:41.344Z,30.87
2024-02-20T11:58:41.441Z,30.83
2024-02-20T11:59:41.347Z,30.85
2024-02-20T12:00:41.467Z,30.79
2024-02-20T12:01:41.455Z,30.64
2024-02-20T12:02:41.360Z,30.67
2024-02-20T12:03:41.358Z,30.72
2024-02-20T12:04:41.451Z,30.64
2024-02-20T12:05:41.627Z,30.63
2024-02-20T12:06:41.409Z,30.66
2024-02-20T12:07:41.478Z,30.56
2024-02-20T12:08:41.809Z,30.58
2024-02-20T12:09:41.370Z,30.59
2024-02-20T12:10:41.401Z,30.52
2024-02-20T12:11:41.514Z,30.51
2024-02-20T12:12:41.378Z,30.48
2024-02-20T12:13:41.536Z,30.51
2024-02-20T12:14:41.390Z,30.49
2024-02-20T12:15:41.423Z,30.49
2024-02-20T12:16:41.473Z,30.41
2024-02-20T12:17:41.419Z,30.41
2024-02-20T12:18:41.405Z,30.37
2024-02-20T12:19:41.467Z,30.40
2024-02-20T12:20:41.432Z,30.38
2024-02-20T12:21:41.440Z,30.36
2024-02-20T12:22:41.564Z,30.32
2024-02-20T12:23:41.610Z,30.29
2024-02-20T12:24:41.702Z,30.29
2024-02-20T12:25:41.777Z,30.23
2024-02-20T12:26:41.891Z,30.23
2024-02-20T12:27:41.881Z,30.18
2024-02-20T12:28:41.955Z,30.16
2024-02-20T12:29:42.018Z,30.13
2024-02-20T12:30:42.084Z,30.13
2024-02-20T12:31:42.275Z,30.06
2024-02-20T12:32:42.306Z,30.11
2024-02-20T12:33:42.420Z,30.11
2024-02-20T12:34:49.146Z,30.04
2024-02-20T12:35:43.413Z,30.04
2024-02-20T12:36:42.396Z,30.05
2024-02-20T12:37:42.652Z,30.01
2024-02-20T12:38:42.399Z,29.98
2024-02-20T12:39:42.395Z,30.00
2024-02-20T12:40:42.467Z,29.99
2024-02-20T12:41:42.428Z,29.93
2024-02-20T12:42:42.408Z,29.93
2024-02-20T12:43:42.722Z,29.93
2024-02-20T12:44:42.554Z,29.85
2024-02-20T12:45:42.632Z,29.83
2024-02-20T12:46:42.768Z,29.82
2024-02-20T12:47:42.832Z,29.79
2024-02-20T12:48:43.012Z,29.76
2024-02-20T12:49:42.958Z,29.78
2024-02-20T12:50:42.960Z,29.70
2024-02-20T12:51:43.046Z,29.68
2024-02-20T12:52:43.168Z,29.68
2024-02-20T12:53:43.157Z,29.64